createdAt,value
2019-03-26T00:00:20.699Z,7.95
2019-03-26T00:01:20.694Z,7.95
2019-03-26T00:02:20.660Z,7.96
2019-03-26T00:03:20.461Z,7.93
2019-03-26T00:04:20.459Z,7.96
2019-03-26T00:05:20.337Z,7.91
2019-03-26T00:06:20.342Z,7.95
2019-03-26T00:07:20.300Z,7.93
2019-03-26T00:08:20.223Z,7.98
2019-03-26T00:09:20.225Z,8.01
2019-03-26T00:10:20.098Z,7.99
2019-03-26T00:11:20.099Z,7.93
2019-03-26T00:12:20.096Z,7.93
2019-03-26T00:13:19.983Z,7.93
2019-03-26T00:14:19.977Z,8.05
2019-03-26T00:15:19.862Z,8.03
2019-03-26T00:16:19.867Z,7.96
2019-03-26T00:17:19.853Z,7.93
2019-03-26T00:18:19.736Z,7.93
2019-03-26T00:19:19.741Z,8.03
2019-03-26T00:20:19.621Z,7.99
2019-03-26T00:21:19.617Z,7.96
2019-03-26T00:22:19.616Z,7.98
2019-03-26T00:23:19.499Z,8.02
2019-03-26T00:24:19.502Z,7.93
2019-03-26T00:25:19.376Z,8.03
2019-03-26T00:26:19.379Z,8.08
2019-03-26T00:27:19.379Z,7.95
2019-03-26T00:28:19.255Z,7.98
2019-03-26T00:29:19.260Z,8.01
2019-03-26T00:30:19.134Z,8.05
2019-03-26T00:31:19.135Z,7.99
2019-03-26T00:32:19.132Z,7.96
2019-03-26T00:33:19.014Z,8.02
2019-03-26T00:34:19.788Z,7.99
2019-03-26T00:35:18.895Z,8.02
2019-03-26T00:36:18.891Z,7.99
2019-03-26T00:37:18.897Z,8.01
2019-03-26T00:38:18.777Z,8.08
2019-03-26T00:39:18.770Z,8.05
2019-03-26T00:40:18.653Z,8.05
2019-03-26T00:41:18.651Z,8.05
2019-03-26T00:42:18.651Z,8.03
2019-03-26T00:43:18.536Z,7.99
2019-03-26T00:44:18.534Z,8.03
2019-03-26T00:45:18.411Z,8.05
2019-03-26T00:46:18.415Z,8.03
2019-03-26T00:47:18.409Z,8.01
2019-03-26T00:48:18.291Z,8.03
2019-03-26T00:49:18.291Z,8.02
2019-03-26T00:50:18.176Z,8.03
2019-03-26T00:51:18.173Z,8.03
2019-03-26T00:52:18.167Z,8.02
2019-03-26T00:53:18.060Z,8.01
2019-03-26T00:54:18.051Z,8.03
2019-03-26T00:55:23.009Z,8.05
2019-03-26T00:56:17.927Z,8.05
2019-03-26T00:57:17.927Z,8.05
2019-03-26T00:58:17.807Z,7.98
2019-03-26T00:59:17.814Z,8.01
2019-03-26T01:00:17.695Z,8.03
2019-03-26T01:01:17.689Z,8.02
2019-03-26T01:02:17.691Z,7.96
2019-03-26T01:03:17.568Z,8.02
2019-03-26T01:04:17.571Z,8.03
2019-03-26T01:05:17.450Z,8.02
2019-03-26T01:06:17.452Z,8.02
2019-03-26T01:07:17.447Z,7.98
2019-03-26T01:08:17.323Z,7.99
2019-03-26T01:09:17.330Z,7.98
2019-03-26T01:10:17.207Z,7.95
2019-03-26T01:11:17.206Z,8.01
2019-03-26T01:12:17.205Z,7.98
2019-03-26T01:13:17.095Z,7.93
2019-03-26T01:14:17.087Z,7.99
2019-03-26T01:15:16.962Z,7.93
2019-03-26T01:16:16.963Z,7.91
2019-03-26T01:17:16.968Z,8.05
2019-03-26T01:18:16.847Z,7.95
2019-03-26T01:19:16.842Z,8.02
2019-03-26T01:20:16.722Z,7.95
2019-03-26T01:21:16.724Z,8.01
2019-03-26T01:22:16.722Z,7.95
2019-03-26T01:23:16.601Z,7.95
2019-03-26T01:24:16.604Z,7.95
2019-03-26T01:25:16.481Z,7.95
2019-03-26T01:26:16.480Z,7.98
2019-03-26T01:27:16.487Z,7.96
2019-03-26T01:28:16.360Z,7.91
2019-03-26T01:29:16.360Z,7.96
2019-03-26T01:30:16.242Z,7.85
2019-03-26T01:31:16.242Z,7.83
2019-03-26T01:32:16.241Z,7.88
2019-03-26T01:33:16.121Z,7.87
2019-03-26T01:34:16.122Z,7.91
2019-03-26T01:35:15.998Z,7.90
2019-03-26T01:36:16.007Z,7.87
2019-03-26T01:37:16.003Z,7.90
2019-03-26T01:38:15.889Z,7.83
2019-03-26T01:39:15.945Z,7.88
2019-03-26T01:40:15.842Z,7.85
2019-03-26T01:41:15.791Z,7.87
2019-03-26T01:42:15.759Z,7.87
2019-03-26T01:43:15.642Z,7.84
2019-03-26T01:44:15.647Z,7.90
2019-03-26T01:45:15.600Z,7.78
2019-03-26T01:46:15.522Z,7.78
2019-03-26T01:47:15.516Z,7.83
2019-03-26T01:48:15.401Z,7.90
2019-03-26T01:49:15.397Z,7.84
2019-03-26T01:50:15.359Z,7.81
2019-03-26T01:51:15.280Z,7.83
2019-03-26T01:52:15.277Z,7.83
2019-03-26T01:53:15.155Z,7.87
2019-03-26T01:54:15.159Z,7.84
2019-03-26T01:55:15.152Z,7.80
2019-03-26T01:56:15.040Z,7.85
2019-03-26T01:57:15.040Z,7.81
2019-03-26T01:58:14.993Z,7.85
2019-03-26T01:59:14.921Z,7.80
2019-03-26T02:00:14.876Z,7.78
2019-03-26T02:01:14.797Z,7.85
2019-03-26T02:02:14.798Z,7.90
2019-03-26T02:03:14.680Z,7.85
2019-03-26T02:04:14.677Z,7.85
2019-03-26T02:05:14.636Z,7.83
2019-03-26T02:06:14.553Z,7.80
2019-03-26T02:07:14.560Z,7.77
2019-03-26T02:08:14.439Z,7.72
2019-03-26T02:09:14.431Z,7.81
2019-03-26T02:10:14.394Z,7.74
2019-03-26T02:11:14.316Z,7.69
2019-03-26T02:12:14.312Z,7.84
2019-03-26T02:13:14.192Z,7.75
2019-03-26T02:14:14.193Z,7.77
2019-03-26T02:15:14.186Z,7.72
2019-03-26T02:16:14.077Z,7.77
2019-03-26T02:17:14.075Z,7.77
2019-03-26T02:18:13.956Z,7.74
2019-03-26T02:19:13.950Z,7.75
2019-03-26T02:20:13.948Z,7.72
2019-03-26T02:21:13.831Z,7.77
2019-03-26T02:22:13.829Z,7.78
2019-03-26T02:23:13.709Z,7.72
2019-03-26T02:24:13.711Z,7.77
2019-03-26T02:25:13.715Z,7.69
2019-03-26T02:26:13.594Z,7.70
2019-03-26T02:27:13.593Z,7.69
2019-03-26T02:28:13.468Z,7.77
2019-03-26T02:29:13.471Z,7.62
2019-03-26T02:30:13.472Z,7.61
2019-03-26T02:31:13.351Z,7.67
2019-03-26T02:32:13.351Z,7.61
2019-03-26T02:33:13.231Z,7.70
2019-03-26T02:34:13.232Z,7.61
2019-03-26T02:35:18.435Z,7.64
2019-03-26T02:36:13.112Z,7.69
2019-03-26T02:37:13.106Z,7.75
2019-03-26T02:38:12.985Z,7.70
2019-03-26T02:39:12.992Z,7.81
2019-03-26T02:40:12.988Z,7.75
2019-03-26T02:41:12.876Z,7.70
2019-03-26T02:42:12.950Z,7.70
2019-03-26T02:43:12.744Z,7.66
2019-03-26T02:44:12.752Z,7.74
2019-03-26T02:45:12.752Z,7.69
2019-03-26T02:46:12.628Z,7.64
2019-03-26T02:47:12.624Z,7.66
2019-03-26T02:48:12.506Z,7.67
2019-03-26T02:49:12.513Z,7.72
2019-03-26T02:50:12.505Z,7.67
2019-03-26T02:51:12.389Z,7.78
2019-03-26T02:52:12.388Z,7.62
2019-03-26T02:53:12.267Z,7.74
2019-03-26T02:54:12.266Z,7.83
2019-03-26T02:55:12.265Z,7.66
2019-03-26T02:56:12.146Z,7.70
2019-03-26T02:57:12.150Z,7.81
2019-03-26T02:58:12.026Z,7.72
2019-03-26T02:59:12.022Z,7.74
2019-03-26T03:00:12.027Z,7.75
2019-03-26T03:01:11.903Z,7.61
2019-03-26T03:02:11.902Z,7.69
2019-03-26T03:03:11.785Z,7.78
2019-03-26T03:04:11.797Z,7.61
2019-03-26T03:05:11.785Z,7.69
2019-03-26T03:06:11.667Z,7.61
2019-03-26T03:07:11.664Z,7.77
2019-03-26T03:08:11.546Z,7.72
2019-03-26T03:09:11.544Z,7.66
2019-03-26T03:10:11.550Z,7.67
2019-03-26T03:11:11.422Z,7.72
2019-03-26T03:12:11.418Z,7.74
2019-03-26T03:13:11.299Z,7.62
2019-03-26T03:14:11.298Z,7.70
2019-03-26T03:15:11.298Z,7.64
2019-03-26T03:16:11.178Z,7.72
2019-03-26T03:17:11.180Z,7.70
2019-03-26T03:18:11.057Z,7.64
2019-03-26T03:19:11.073Z,7.69
2019-03-26T03:20:11.065Z,7.66
2019-03-26T03:21:10.938Z,7.74
2019-03-26T03:22:10.941Z,7.66
2019-03-26T03:23:10.817Z,7.72
2019-03-26T03:24:10.817Z,7.66
2019-03-26T03:25:10.820Z,7.55
2019-03-26T03:26:10.694Z,7.75
2019-03-26T03:27:10.696Z,7.75
2019-03-26T03:28:10.582Z,7.59
2019-03-26T03:29:10.576Z,7.74
2019-03-26T03:30:10.594Z,7.61
2019-03-26T03:31:10.465Z,7.56
2019-03-26T03:32:10.456Z,7.75
2019-03-26T03:33:10.342Z,7.55
2019-03-26T03:34:10.350Z,7.62
2019-03-26T03:35:10.338Z,7.61
2019-03-26T03:36:10.217Z,7.62
2019-03-26T03:37:10.218Z,7.59
2019-03-26T03:38:10.093Z,7.72
2019-03-26T03:39:10.108Z,7.61
2019-03-26T03:40:10.096Z,7.72
2019-03-26T03:41:09.973Z,7.55
2019-03-26T03:42:09.976Z,7.70
2019-03-26T03:43:09.859Z,7.59
2019-03-26T03:44:09.864Z,7.61
2019-03-26T03:45:09.877Z,7.56
2019-03-26T03:46:09.743Z,7.59
2019-03-26T03:47:09.737Z,7.58
2019-03-26T03:48:09.614Z,7.59
2019-03-26T03:49:09.615Z,7.64
2019-03-26T03:50:09.612Z,7.59
2019-03-26T03:51:09.497Z,7.61
2019-03-26T03:52:09.498Z,7.58
2019-03-26T03:53:09.376Z,7.61
2019-03-26T03:54:09.372Z,7.62
2019-03-26T03:55:09.389Z,7.59
2019-03-26T03:56:09.251Z,7.56
2019-03-26T03:57:09.248Z,7.62
2019-03-26T03:58:09.130Z,7.64
2019-03-26T03:59:09.131Z,7.69
2019-03-26T04:00:09.127Z,7.62
2019-03-26T04:01:09.016Z,7.64
2019-03-26T04:02:09.018Z,7.62
2019-03-26T04:03:08.894Z,7.66
2019-03-26T04:04:08.894Z,7.67
2019-03-26T04:05:08.890Z,7.64
2019-03-26T04:06:10.232Z,7.61
2019-03-26T04:07:08.768Z,7.72
2019-03-26T04:08:08.702Z,7.59
2019-03-26T04:09:08.647Z,7.58
2019-03-26T04:10:08.650Z,7.61
2019-03-26T04:11:08.532Z,7.74
2019-03-26T04:12:08.526Z,7.58
2019-03-26T04:13:08.409Z,7.69
2019-03-26T04:14:08.408Z,7.66
2019-03-26T04:15:08.410Z,7.55
2019-03-26T04:16:08.289Z,7.58
2019-03-26T04:17:08.287Z,7.62
2019-03-26T04:18:08.177Z,7.58
2019-03-26T04:19:08.166Z,7.64
2019-03-26T04:20:08.167Z,7.64
2019-03-26T04:21:08.050Z,7.64
2019-03-26T04:22:08.046Z,7.62
2019-03-26T04:23:07.922Z,7.59
2019-03-26T04:24:07.925Z,7.64
2019-03-26T04:25:07.927Z,7.64
2019-03-26T04:26:07.808Z,7.55
2019-03-26T04:27:07.805Z,7.64
2019-03-26T04:28:07.687Z,7.62
2019-03-26T04:29:07.693Z,7.59
2019-03-26T04:30:07.686Z,7.64
2019-03-26T04:31:07.573Z,7.62
2019-03-26T04:32:07.564Z,7.59
2019-03-26T04:33:07.451Z,7.56
2019-03-26T04:34:07.447Z,7.58
2019-03-26T04:35:07.445Z,7.58
2019-03-26T04:36:07.351Z,7.62
2019-03-26T04:37:07.321Z,7.59
2019-03-26T04:38:07.202Z,7.64
2019-03-26T04:39:07.204Z,7.62
2019-03-26T04:40:07.209Z,7.62
2019-03-26T04:41:07.084Z,7.70
2019-03-26T04:42:07.086Z,7.64
2019-03-26T04:43:06.960Z,7.64
2019-03-26T04:44:06.962Z,7.64
2019-03-26T04:45:06.959Z,7.62
2019-03-26T04:46:06.841Z,7.72
2019-03-26T04:47:06.838Z,7.62
2019-03-26T04:48:06.718Z,7.67
2019-03-26T04:49:06.794Z,7.64
2019-03-26T04:50:06.718Z,7.62
2019-03-26T04:51:06.601Z,7.66
2019-03-26T04:52:06.600Z,7.64
2019-03-26T04:53:06.481Z,7.66
2019-03-26T04:54:06.481Z,7.66
2019-03-26T04:55:06.477Z,7.62
2019-03-26T04:56:06.360Z,7.58
2019-03-26T04:57:06.361Z,7.55
2019-03-26T04:58:06.239Z,7.56
2019-03-26T04:59:06.238Z,7.61
2019-03-26T05:00:06.245Z,7.58
2019-03-26T05:01:06.119Z,7.61
2019-03-26T05:02:06.116Z,7.62
2019-03-26T05:03:06.002Z,7.70
2019-03-26T05:04:06.005Z,7.58
2019-03-26T05:05:05.998Z,7.70
2019-03-26T05:06:05.886Z,7.61
2019-03-26T05:07:05.877Z,7.59
2019-03-26T05:08:05.763Z,7.69
2019-03-26T05:09:05.771Z,7.64
2019-03-26T05:10:05.756Z,7.62
2019-03-26T05:11:05.640Z,7.69
2019-03-26T05:12:05.636Z,7.66
2019-03-26T05:13:05.516Z,7.61
2019-03-26T05:14:05.525Z,7.56
2019-03-26T05:15:05.523Z,7.56
2019-03-26T05:16:05.396Z,7.72
2019-03-26T05:17:05.398Z,7.72
2019-03-26T05:18:05.274Z,7.69
2019-03-26T05:19:05.277Z,7.77
2019-03-26T05:20:05.274Z,7.77
2019-03-26T05:21:05.159Z,7.77
2019-03-26T05:22:05.154Z,7.72
2019-03-26T05:23:05.038Z,7.58
2019-03-26T05:24:05.032Z,7.72
2019-03-26T05:25:05.039Z,7.69
2019-03-26T05:26:04.917Z,7.69
2019-03-26T05:27:04.910Z,7.72
2019-03-26T05:28:04.792Z,7.69
2019-03-26T05:29:04.789Z,7.70
2019-03-26T05:30:04.794Z,7.72
2019-03-26T05:31:04.669Z,7.67
2019-03-26T05:32:04.674Z,7.77
2019-03-26T05:33:04.552Z,7.72
2019-03-26T05:34:04.550Z,7.72
2019-03-26T05:35:04.556Z,7.66
2019-03-26T05:36:04.430Z,7.77
2019-03-26T05:37:04.431Z,7.70
2019-03-26T05:38:04.428Z,7.72
2019-03-26T05:39:04.319Z,7.77
2019-03-26T05:40:04.311Z,7.64
2019-03-26T05:41:04.201Z,7.75
2019-03-26T05:42:04.193Z,7.69
2019-03-26T05:43:04.073Z,7.75
2019-03-26T05:44:04.069Z,7.74
2019-03-26T05:45:04.074Z,7.74
2019-03-26T05:46:03.952Z,7.83
2019-03-26T05:47:03.945Z,7.74
2019-03-26T05:48:03.835Z,7.77
2019-03-26T05:49:03.835Z,7.77
2019-03-26T05:50:03.833Z,7.72
2019-03-26T05:51:03.705Z,7.72
2019-03-26T05:52:03.723Z,7.84
2019-03-26T05:53:03.590Z,7.74
2019-03-26T05:54:03.589Z,7.77
2019-03-26T05:55:03.591Z,7.78
2019-03-26T05:56:03.462Z,7.83
2019-03-26T05:57:03.471Z,7.78
2019-03-26T05:58:03.352Z,7.81
2019-03-26T05:59:03.354Z,7.80
2019-03-26T06:00:03.344Z,7.87
2019-03-26T06:01:03.222Z,7.87
2019-03-26T06:02:13.447Z,7.80
2019-03-26T06:03:03.106Z,7.88
2019-03-26T06:04:03.105Z,7.83
2019-03-26T06:05:03.109Z,7.87
2019-03-26T06:06:02.986Z,7.88
2019-03-26T06:07:05.220Z,7.83
2019-03-26T06:08:02.866Z,7.91
2019-03-26T06:09:02.867Z,7.95
2019-03-26T06:10:02.869Z,7.85
2019-03-26T06:11:02.749Z,7.96
2019-03-26T06:12:02.948Z,7.87
2019-03-26T06:13:02.627Z,7.91
2019-03-26T06:14:02.623Z,7.85
2019-03-26T06:15:02.624Z,7.91
2019-03-26T06:16:02.505Z,7.85
2019-03-26T06:17:02.587Z,7.90
2019-03-26T06:18:02.386Z,7.93
2019-03-26T06:19:02.381Z,7.96
2019-03-26T06:20:02.379Z,7.95
2019-03-26T06:21:02.260Z,7.96
2019-03-26T06:22:02.265Z,7.96
2019-03-26T06:23:02.142Z,7.93
2019-03-26T06:24:02.146Z,7.99
2019-03-26T06:25:02.154Z,8.06
2019-03-26T06:26:02.022Z,7.99
2019-03-26T06:27:02.018Z,8.06
2019-03-26T06:28:01.898Z,8.02
2019-03-26T06:29:01.899Z,8.01
2019-03-26T06:30:01.902Z,8.09
2019-03-26T06:31:01.782Z,8.17
2019-03-26T06:32:01.778Z,8.14
2019-03-26T06:33:01.658Z,8.11
2019-03-26T06:34:01.660Z,8.11
2019-03-26T06:35:01.660Z,8.18
2019-03-26T06:36:01.536Z,8.18
2019-03-26T06:37:01.545Z,8.09
2019-03-26T06:38:01.427Z,8.13
2019-03-26T06:39:01.418Z,8.13
2019-03-26T06:40:01.416Z,8.18
2019-03-26T06:41:01.297Z,8.18
2019-03-26T06:42:01.298Z,8.08
2019-03-26T06:43:01.178Z,8.18
2019-03-26T06:44:01.175Z,8.11
2019-03-26T06:45:01.176Z,8.17
2019-03-26T06:46:01.056Z,8.20
2019-03-26T06:47:01.053Z,8.17
2019-03-26T06:48:03.963Z,8.18
2019-03-26T06:49:00.937Z,8.21
2019-03-26T06:50:00.937Z,8.20
2019-03-26T06:51:00.814Z,8.20
2019-03-26T06:52:00.815Z,8.23
2019-03-26T06:53:00.774Z,8.20
2019-03-26T06:54:00.693Z,8.20
2019-03-26T06:55:00.692Z,8.32
2019-03-26T06:56:00.578Z,8.21
2019-03-26T06:57:00.570Z,8.31
2019-03-26T06:58:00.572Z,8.28
2019-03-26T06:59:00.453Z,8.32
2019-03-26T07:00:00.453Z,8.27
2019-03-26T07:01:00.335Z,8.34
2019-03-26T07:02:00.351Z,8.38
2019-03-26T07:03:00.333Z,8.34
2019-03-26T07:04:00.217Z,8.28
2019-03-26T07:05:00.455Z,8.27
2019-03-26T07:06:00.089Z,8.26
2019-03-26T07:07:00.091Z,8.34
2019-03-26T07:08:00.090Z,8.35
2019-03-26T07:08:59.969Z,8.34
2019-03-26T07:09:59.972Z,8.32
2019-03-26T07:10:59.853Z,8.42
2019-03-26T07:11:59.847Z,8.44
2019-03-26T07:12:59.849Z,8.44
2019-03-26T07:13:59.727Z,8.41
2019-03-26T07:14:59.727Z,8.42
2019-03-26T07:15:59.615Z,8.49
2019-03-26T07:16:59.605Z,8.50
2019-03-26T07:17:59.612Z,8.53
2019-03-26T07:18:59.487Z,8.52
2019-03-26T07:19:59.493Z,8.57
2019-03-26T07:20:59.369Z,8.60
2019-03-26T07:21:59.370Z,8.59
2019-03-26T07:22:59.367Z,8.68
2019-03-26T07:23:59.250Z,8.68
2019-03-26T07:24:59.249Z,8.71
2019-03-26T07:25:59.126Z,8.59
2019-03-26T07:26:59.124Z,8.61
2019-03-26T07:27:59.149Z,8.66
2019-03-26T07:28:59.008Z,8.68
2019-03-26T07:29:59.005Z,8.77
2019-03-26T07:30:58.947Z,8.74
2019-03-26T07:31:58.886Z,8.78
2019-03-26T07:32:58.893Z,8.69
2019-03-26T07:33:58.766Z,8.68
2019-03-26T07:34:58.766Z,8.81
2019-03-26T07:35:58.659Z,8.79
2019-03-26T07:36:58.648Z,8.78
2019-03-26T07:37:58.641Z,8.77
2019-03-26T07:38:58.521Z,8.75
2019-03-26T07:39:58.523Z,8.74
2019-03-26T07:40:58.401Z,8.77
2019-03-26T07:41:58.403Z,8.77
2019-03-26T07:42:58.400Z,8.79
2019-03-26T07:43:58.292Z,8.75
2019-03-26T07:44:58.281Z,8.78
2019-03-26T07:45:58.170Z,8.74
2019-03-26T07:46:58.168Z,8.79
2019-03-26T07:47:58.164Z,8.77
2019-03-26T07:48:58.042Z,8.77
2019-03-26T07:49:58.044Z,8.77
2019-03-26T07:50:57.918Z,8.75
2019-03-26T07:51:57.922Z,8.75
2019-03-26T07:52:57.922Z,8.81
2019-03-26T07:53:57.803Z,8.82
2019-03-26T07:54:57.803Z,8.72
2019-03-26T07:55:57.762Z,8.71
2019-03-26T07:56:57.681Z,8.74
2019-03-26T07:57:57.679Z,8.89
2019-03-26T07:58:57.558Z,8.74
2019-03-26T07:59:57.561Z,8.84
2019-03-26T08:00:57.554Z,8.84
2019-03-26T08:01:57.441Z,8.72
2019-03-26T08:02:57.436Z,8.87
2019-03-26T08:03:57.320Z,8.77
2019-03-26T08:04:57.319Z,8.86
2019-03-26T08:05:57.317Z,8.92
2019-03-26T08:06:57.199Z,8.87
2019-03-26T08:07:58.502Z,8.89
2019-03-26T08:08:57.084Z,8.86
2019-03-26T08:09:57.080Z,8.86
2019-03-26T08:10:57.104Z,8.92
2019-03-26T08:11:56.957Z,8.97
2019-03-26T08:12:56.984Z,8.99
2019-03-26T08:13:56.864Z,8.99
2019-03-26T08:14:56.835Z,9.00
2019-03-26T08:15:56.839Z,9.05
2019-03-26T08:16:56.724Z,9.00
2019-03-26T08:17:56.713Z,9.09
2019-03-26T08:18:56.593Z,9.11
2019-03-26T08:19:56.596Z,9.15
2019-03-26T08:20:57.602Z,9.08
2019-03-26T08:21:56.472Z,9.13
2019-03-26T08:22:56.475Z,9.19
2019-03-26T08:23:56.357Z,9.15
2019-03-26T08:24:56.360Z,9.15
2019-03-26T08:25:56.353Z,9.18
2019-03-26T08:26:56.233Z,9.30
2019-03-26T08:27:56.230Z,9.34
2019-03-26T08:28:56.120Z,9.42
2019-03-26T08:29:56.111Z,9.36
2019-03-26T08:30:56.111Z,9.49
2019-03-26T08:31:55.990Z,9.54
2019-03-26T08:32:55.990Z,9.52
2019-03-26T08:33:55.872Z,9.59
2019-03-26T08:34:55.874Z,9.64
2019-03-26T08:35:55.875Z,9.58
2019-03-26T08:36:55.750Z,9.66
2019-03-26T08:37:55.749Z,9.64
2019-03-26T08:38:55.711Z,9.63
2019-03-26T08:39:55.632Z,9.64
2019-03-26T08:40:55.637Z,9.70
2019-03-26T08:41:55.509Z,9.73
2019-03-26T08:42:55.507Z,9.76
2019-03-26T08:43:55.509Z,9.94
2019-03-26T08:44:55.388Z,10.03
2019-03-26T08:45:55.392Z,10.00
2019-03-26T08:46:55.272Z,10.10
2019-03-26T08:47:55.271Z,10.18
2019-03-26T08:48:55.266Z,10.21
2019-03-26T08:49:55.147Z,10.24
2019-03-26T08:50:55.152Z,10.25
2019-03-26T08:51:55.027Z,10.28
2019-03-26T08:52:55.029Z,10.25
2019-03-26T08:53:55.044Z,10.34
2019-03-26T08:54:54.905Z,10.39
2019-03-26T08:55:54.910Z,10.42
2019-03-26T08:56:54.787Z,10.45
2019-03-26T08:57:54.788Z,10.48
2019-03-26T08:58:54.791Z,10.48
2019-03-26T08:59:54.672Z,10.36
2019-03-26T09:00:54.673Z,10.45
2019-03-26T09:01:54.672Z,10.33
2019-03-26T09:02:54.547Z,10.34
2019-03-26T09:03:54.543Z,10.39
2019-03-26T09:04:54.424Z,10.43
2019-03-26T09:05:54.429Z,10.42
2019-03-26T09:06:54.422Z,10.42
2019-03-26T09:07:54.310Z,10.49
2019-03-26T09:08:54.307Z,10.51
2019-03-26T09:09:54.181Z,10.62
2019-03-26T09:10:54.186Z,10.65
2019-03-26T09:11:54.184Z,10.62
2019-03-26T09:12:54.063Z,10.76
2019-03-26T09:13:54.062Z,10.67
2019-03-26T09:14:53.940Z,10.62
2019-03-26T09:15:53.944Z,10.61
2019-03-26T09:16:53.940Z,10.61
2019-03-26T09:17:53.835Z,10.53
2019-03-26T09:18:53.819Z,10.46
2019-03-26T09:19:53.821Z,10.49
2019-03-26T09:20:53.705Z,10.49
2019-03-26T09:21:53.700Z,10.49
2019-03-26T09:22:53.582Z,10.38
2019-03-26T09:23:53.578Z,10.39
2019-03-26T09:24:53.581Z,10.41
2019-03-26T09:25:53.460Z,10.36
2019-03-26T09:26:53.457Z,10.25
2019-03-26T09:27:53.343Z,10.27
2019-03-26T09:28:53.342Z,10.23
2019-03-26T09:29:53.341Z,10.20
2019-03-26T09:30:53.220Z,10.13
2019-03-26T09:31:53.544Z,10.20
2019-03-26T09:32:53.188Z,10.09
2019-03-26T09:33:53.103Z,10.03
2019-03-26T09:34:53.097Z,10.07
2019-03-26T09:35:52.988Z,9.99
2019-03-26T09:36:52.975Z,10.02
2019-03-26T09:37:52.983Z,10.06
2019-03-26T09:38:52.855Z,9.97
2019-03-26T09:39:52.858Z,9.92
2019-03-26T09:40:52.734Z,9.95
2019-03-26T09:41:52.745Z,9.95
2019-03-26T09:42:52.739Z,9.92
2019-03-26T09:43:52.616Z,9.91
2019-03-26T09:44:52.619Z,9.94
2019-03-26T09:45:52.495Z,9.95
2019-03-26T09:46:52.496Z,9.94
2019-03-26T09:47:52.499Z,9.92
2019-03-26T09:48:52.382Z,10.02
2019-03-26T09:49:52.372Z,10.02
2019-03-26T09:50:52.257Z,10.06
2019-03-26T09:51:52.254Z,10.02
2019-03-26T09:52:52.252Z,10.09
2019-03-26T09:53:52.224Z,10.20
2019-03-26T09:54:52.145Z,10.13
2019-03-26T09:55:52.133Z,10.18
2019-03-26T09:56:52.027Z,10.18
2019-03-26T09:57:52.019Z,10.20
2019-03-26T09:58:51.891Z,10.13
2019-03-26T09:59:51.898Z,10.25
2019-03-26T10:00:52.054Z,10.20
2019-03-26T10:01:51.770Z,10.31
2019-03-26T10:02:51.787Z,10.42
2019-03-26T10:03:51.656Z,10.48
2019-03-26T10:04:51.659Z,10.58
2019-03-26T10:05:51.654Z,10.62
2019-03-26T10:06:51.532Z,10.75
2019-03-26T10:07:51.531Z,10.83
2019-03-26T10:08:52.879Z,10.89
2019-03-26T10:09:51.409Z,11.01
2019-03-26T10:10:51.408Z,11.05
2019-03-26T10:11:51.289Z,11.19
2019-03-26T10:12:51.288Z,11.23
2019-03-26T10:13:51.286Z,11.31
2019-03-26T10:14:51.172Z,11.43
2019-03-26T10:15:51.171Z,11.43
2019-03-26T10:16:51.049Z,11.45
2019-03-26T10:17:51.050Z,11.44
2019-03-26T10:18:51.049Z,11.58
2019-03-26T10:19:50.928Z,11.49
2019-03-26T10:20:50.930Z,11.58
2019-03-26T10:21:50.881Z,11.55
2019-03-26T10:22:50.811Z,11.56
2019-03-26T10:23:50.806Z,11.67
2019-03-26T10:24:50.687Z,11.68
2019-03-26T10:25:50.688Z,11.63
2019-03-26T10:26:50.767Z,11.67
2019-03-26T10:27:50.679Z,11.70
2019-03-26T10:28:50.686Z,11.71
2019-03-26T10:29:50.462Z,11.71
2019-03-26T10:30:50.457Z,11.88
2019-03-26T10:31:50.446Z,12.02
2019-03-26T10:32:50.326Z,11.91
2019-03-26T10:33:50.325Z,12.02
2019-03-26T10:34:50.203Z,12.00
2019-03-26T10:35:50.204Z,12.08
2019-03-26T10:36:50.202Z,12.10
2019-03-26T10:37:50.085Z,12.15
2019-03-26T10:38:50.580Z,12.20
2019-03-26T10:39:50.086Z,12.33
2019-03-26T10:40:49.963Z,12.36
2019-03-26T10:41:49.971Z,12.43
2019-03-26T10:42:49.842Z,12.48
2019-03-26T10:43:49.848Z,12.54
2019-03-26T10:44:49.845Z,12.65
2019-03-26T10:45:49.727Z,12.69
2019-03-26T10:46:49.730Z,12.70
2019-03-26T10:47:49.717Z,12.75
2019-03-26T10:48:49.602Z,12.62
2019-03-26T10:49:49.599Z,12.62
2019-03-26T10:50:49.498Z,12.63
2019-03-26T10:51:49.491Z,12.54
2019-03-26T10:52:49.485Z,12.58
2019-03-26T10:53:49.363Z,12.61
2019-03-26T10:54:49.360Z,12.58
2019-03-26T10:55:49.241Z,12.69
2019-03-26T10:56:49.243Z,12.72
2019-03-26T10:57:49.242Z,12.76
2019-03-26T10:58:49.120Z,12.83
2019-03-26T10:59:49.119Z,12.95
2019-03-26T11:00:49.141Z,12.90
2019-03-26T11:01:49.002Z,13.05
2019-03-26T11:02:48.998Z,12.90
2019-03-26T11:03:48.880Z,12.93
2019-03-26T11:04:48.879Z,12.88
2019-03-26T11:05:48.880Z,12.88
2019-03-26T11:06:48.757Z,12.81
2019-03-26T11:07:48.757Z,12.83
2019-03-26T11:08:48.760Z,12.83
2019-03-26T11:09:48.640Z,12.84
2019-03-26T11:10:48.640Z,12.78
2019-03-26T11:11:48.524Z,12.75
2019-03-26T11:12:48.523Z,12.76
2019-03-26T11:13:48.516Z,12.69
2019-03-26T11:14:48.401Z,12.62
2019-03-26T11:15:48.397Z,12.62
2019-03-26T11:16:48.392Z,12.65
2019-03-26T11:17:48.278Z,12.45
2019-03-26T11:18:48.279Z,12.36
2019-03-26T11:19:48.156Z,12.39
2019-03-26T11:21:01.365Z,12.26
2019-03-26T11:21:48.154Z,12.23
2019-03-26T11:22:48.038Z,12.32
2019-03-26T11:23:48.035Z,12.21
2019-03-26T11:24:47.913Z,12.20
2019-03-26T11:25:47.922Z,12.15
2019-03-26T11:26:47.912Z,12.28
2019-03-26T11:27:47.792Z,12.14
2019-03-26T11:28:47.796Z,12.17
2019-03-26T11:29:47.789Z,11.99
2019-03-26T11:30:47.673Z,12.05
2019-03-26T11:31:47.671Z,12.00
2019-03-26T11:32:47.552Z,11.95
2019-03-26T11:33:47.549Z,11.89
2019-03-26T11:34:47.552Z,11.80
2019-03-26T11:35:47.436Z,11.76
2019-03-26T11:36:47.431Z,11.63
2019-03-26T11:37:47.434Z,11.68
2019-03-26T11:38:47.311Z,11.58
2019-03-26T11:39:50.992Z,11.52
2019-03-26T11:40:47.193Z,11.60
2019-03-26T11:41:47.187Z,11.56
2019-03-26T11:42:47.199Z,11.56
2019-03-26T11:43:47.078Z,11.55
2019-03-26T11:44:47.067Z,11.49
2019-03-26T11:45:46.947Z,11.43
2019-03-26T11:46:46.950Z,11.44
2019-03-26T11:47:46.949Z,11.53
2019-03-26T11:48:46.829Z,11.53
2019-03-26T11:49:46.827Z,11.43
2019-03-26T11:50:46.836Z,11.51
2019-03-26T11:51:46.714Z,11.55
2019-03-26T11:52:46.707Z,11.65
2019-03-26T11:53:46.591Z,11.78
2019-03-26T11:54:46.590Z,11.95
2019-03-26T11:55:46.587Z,11.95
2019-03-26T11:56:46.467Z,12.18
2019-03-26T11:57:46.470Z,12.18
2019-03-26T11:58:46.348Z,12.23
2019-03-26T11:59:46.350Z,12.32
2019-03-26T12:00:46.352Z,12.39
2019-03-26T12:01:46.226Z,12.44
2019-03-26T12:02:46.228Z,12.48
2019-03-26T12:03:46.225Z,12.55
2019-03-26T12:04:46.105Z,12.54
2019-03-26T12:05:46.109Z,12.65
2019-03-26T12:06:45.982Z,12.65
2019-03-26T12:07:45.983Z,12.73
2019-03-26T12:08:45.983Z,12.72
2019-03-26T12:09:46.858Z,12.72
2019-03-26T12:10:45.865Z,12.66
2019-03-26T12:11:45.824Z,12.75
2019-03-26T12:12:45.741Z,12.76
2019-03-26T12:13:45.746Z,12.80
2019-03-26T12:14:45.621Z,12.86
2019-03-26T12:15:45.621Z,12.76
2019-03-26T12:16:45.626Z,12.72
2019-03-26T12:17:45.504Z,12.65
2019-03-26T12:18:45.503Z,12.65
2019-03-26T12:19:45.383Z,12.62
2019-03-26T12:20:45.388Z,12.44
2019-03-26T12:21:45.393Z,12.39
2019-03-26T12:22:45.266Z,12.40
2019-03-26T12:23:45.261Z,12.30
2019-03-26T12:24:45.262Z,12.25
2019-03-26T12:25:45.143Z,12.25
2019-03-26T12:26:45.151Z,12.23
2019-03-26T12:27:45.023Z,12.18
2019-03-26T12:28:45.023Z,12.21
2019-03-26T12:29:45.024Z,12.30
2019-03-26T12:30:44.900Z,12.26
2019-03-26T12:31:44.898Z,12.29
2019-03-26T12:32:44.901Z,12.17
2019-03-26T12:33:44.779Z,12.26
2019-03-26T12:34:44.790Z,12.33
2019-03-26T12:35:44.662Z,12.23
2019-03-26T12:36:44.666Z,12.26
2019-03-26T12:37:44.661Z,12.23
2019-03-26T12:38:44.540Z,12.23
2019-03-26T12:39:44.546Z,12.14
2019-03-26T12:40:44.497Z,12.10
2019-03-26T12:41:44.420Z,11.99
2019-03-26T12:42:44.419Z,12.02
2019-03-26T12:43:44.296Z,11.99
2019-03-26T12:44:44.300Z,12.07
2019-03-26T12:45:44.294Z,12.00
2019-03-26T12:46:44.179Z,12.02
2019-03-26T12:47:44.174Z,11.99
2019-03-26T12:48:44.054Z,11.97
2019-03-26T12:49:44.063Z,12.11
2019-03-26T12:50:44.056Z,12.15
2019-03-26T12:51:43.937Z,12.12
2019-03-26T12:52:44.020Z,12.18
2019-03-26T12:53:43.929Z,12.23
2019-03-26T12:54:43.811Z,12.35
2019-03-26T12:55:43.827Z,12.30
2019-03-26T12:56:43.694Z,12.32
2019-03-26T12:57:43.699Z,12.32
2019-03-26T12:58:43.694Z,12.26
2019-03-26T12:59:43.573Z,12.20
2019-03-26T13:00:43.583Z,12.15
2019-03-26T13:01:43.577Z,12.11
2019-03-26T13:02:43.451Z,12.18
2019-03-26T13:03:43.449Z,12.14
2019-03-26T13:04:43.337Z,12.23
2019-03-26T13:05:43.327Z,12.12
2019-03-26T13:06:43.329Z,12.23
2019-03-26T13:07:43.208Z,12.33
2019-03-26T13:08:43.217Z,12.36